createdAt,value
2018-12-26T00:02:52.839Z,74.62
2018-12-26T00:05:21.307Z,74.98
2018-12-26T00:07:49.625Z,75.08
2018-12-26T00:10:17.926Z,75.23
2018-12-26T00:12:46.218Z,75.54
2018-12-26T00:15:14.543Z,76.03
2018-12-26T00:17:42.825Z,76.52
2018-12-26T00:20:11.129Z,76.77
2018-12-26T00:22:39.417Z,76.83
2018-12-26T00:25:07.735Z,76.99
2018-12-26T00:27:36.013Z,77.28
2018-12-26T00:32:58.898Z,77.72
2018-12-26T00:35:27.206Z,77.91
2018-12-26T00:37:55.488Z,78.21
2018-12-26T00:40:23.784Z,78.68
2018-12-26T00:42:52.073Z,78.72
2018-12-26T00:45:20.394Z,78.93
2018-12-26T00:47:48.678Z,79.14
2018-12-26T00:50:17.002Z,79.07
2018-12-26T00:52:45.309Z,79.67
2018-12-26T00:55:13.635Z,79.87
2018-12-26T00:57:41.913Z,80.06
2018-12-26T01:00:10.213Z,80.24
2018-12-26T01:02:38.499Z,80.34
2018-12-26T01:05:06.811Z,80.55
2018-12-26T01:07:35.105Z,80.76
2018-12-26T01:10:43.523Z,80.72
2018-12-26T01:13:11.835Z,80.62
2018-12-26T01:15:40.163Z,81.02
2018-12-26T01:18:08.460Z,81.38
2018-12-26T01:20:36.761Z,81.44
2018-12-26T01:23:05.047Z,81.69
2018-12-26T01:25:33.339Z,81.76
2018-12-26T01:28:01.635Z,81.88
2018-12-26T01:30:29.952Z,81.96
2018-12-26T01:32:58.253Z,82.08
2018-12-26T01:35:26.536Z,82.15
2018-12-26T01:37:54.841Z,82.14
2018-12-26T01:40:23.126Z,82.23
2018-12-26T01:42:51.428Z,82.19
2018-12-26T01:45:19.738Z,82.12
2018-12-26T01:47:48.040Z,82.20
2018-12-26T01:50:16.326Z,82.41
2018-12-26T01:52:44.625Z,82.55
2018-12-26T01:55:12.925Z,82.71
2018-12-26T01:57:41.234Z,82.81
2018-12-26T02:00:09.525Z,82.96
2018-12-26T02:02:37.843Z,82.91
2018-12-26T02:05:06.143Z,83.02
2018-12-26T02:07:34.449Z,83.11
2018-12-26T02:13:10.726Z,82.95
2018-12-26T02:15:39.021Z,83.09
2018-12-26T02:18:07.352Z,83.27
2018-12-26T02:20:35.663Z,83.49
2018-12-26T02:23:03.991Z,83.65
2018-12-26T02:25:32.290Z,83.63
2018-12-26T02:28:00.589Z,83.49
2018-12-26T02:30:28.879Z,83.51
2018-12-26T02:32:57.184Z,83.59
2018-12-26T02:35:25.474Z,83.53
2018-12-26T02:37:53.778Z,83.53
2018-12-26T02:40:22.078Z,83.72
2018-12-26T02:42:50.402Z,83.89
2018-12-26T02:45:18.700Z,83.87
2018-12-26T02:47:47.007Z,83.85
2018-12-26T02:50:15.298Z,83.70
2018-12-26T02:52:43.633Z,83.73
2018-12-26T02:55:11.931Z,83.72
2018-12-26T02:57:40.228Z,83.67
2018-12-26T03:03:22.088Z,83.77
2018-12-26T03:05:50.384Z,83.57
2018-12-26T03:08:18.691Z,83.67
2018-12-26T03:10:47.004Z,83.71
2018-12-26T03:13:15.327Z,83.69
2018-12-26T03:15:43.690Z,83.63
2018-12-26T03:18:11.987Z,83.66
2018-12-26T03:20:40.299Z,83.74
2018-12-26T03:23:08.601Z,83.65
2018-12-26T03:25:36.912Z,83.63
2018-12-26T03:28:05.220Z,83.63
2018-12-26T03:30:33.521Z,83.57
2018-12-26T03:33:01.848Z,83.59
2018-12-26T03:35:30.136Z,83.65
2018-12-26T03:37:58.454Z,83.75
2018-12-26T03:40:26.766Z,83.70
2018-12-26T03:42:55.058Z,83.86
2018-12-26T03:45:23.378Z,83.82
2018-12-26T03:47:51.678Z,83.90
2018-12-26T03:50:19.968Z,83.91
2018-12-26T03:52:48.266Z,83.94
2018-12-26T03:55:16.574Z,84.06
2018-12-26T03:57:44.896Z,84.06
2018-12-26T04:00:13.195Z,84.13
2018-12-26T04:02:41.507Z,84.18
2018-12-26T04:05:09.806Z,84.20
2018-12-26T04:07:38.098Z,84.22
2018-12-26T04:10:06.394Z,84.21
2018-12-26T04:12:34.712Z,84.11
2018-12-26T04:15:03.089Z,84.24
2018-12-26T04:17:31.385Z,84.32
2018-12-26T04:19:59.688Z,84.40
2018-12-26T04:22:27.978Z,84.47
2018-12-26T04:24:56.260Z,84.51
2018-12-26T04:27:24.571Z,84.54
2018-12-26T04:29:52.877Z,84.59
2018-12-26T04:32:21.168Z,84.47
2018-12-26T04:34:49.482Z,84.44
2018-12-26T04:37:17.777Z,84.50
2018-12-26T04:39:46.076Z,84.42
2018-12-26T04:42:14.372Z,84.43
2018-12-26T04:44:42.700Z,84.34
2018-12-26T04:47:11.004Z,84.52
2018-12-26T04:49:39.312Z,84.59
2018-12-26T04:52:07.598Z,84.56
2018-12-26T04:54:35.899Z,84.46
2018-12-26T04:57:04.193Z,84.60
2018-12-26T04:59:32.502Z,84.71
2018-12-26T05:02:00.809Z,84.78
2018-12-26T05:04:29.090Z,84.89
2018-12-26T05:06:57.417Z,84.83
2018-12-26T05:09:25.702Z,84.95
2018-12-26T05:11:53.997Z,85.02
2018-12-26T05:14:22.339Z,84.98
2018-12-26T05:16:50.615Z,85.05
2018-12-26T05:19:18.926Z,85.12
2018-12-26T05:21:47.221Z,85.10
2018-12-26T05:24:15.513Z,85.21
2018-12-26T05:26:43.837Z,85.31
2018-12-26T05:29:12.142Z,85.38
2018-12-26T05:31:40.467Z,85.44
2018-12-26T05:34:08.780Z,85.39
2018-12-26T05:36:37.093Z,85.48
2018-12-26T05:42:19.606Z,85.49
2018-12-26T05:44:47.935Z,85.60
2018-12-26T05:47:16.234Z,85.66
2018-12-26T05:49:44.551Z,85.61
2018-12-26T05:52:12.860Z,85.60
2018-12-26T05:54:41.154Z,85.66
2018-12-26T05:57:09.482Z,85.70
2018-12-26T05:59:37.772Z,85.85
2018-12-26T06:02:06.076Z,85.79
2018-12-26T06:04:34.370Z,85.77
2018-12-26T06:07:02.669Z,85.95
2018-12-26T06:09:30.964Z,86.14
2018-12-26T06:11:59.275Z,86.19
2018-12-26T06:14:27.587Z,86.24
2018-12-26T06:16:55.896Z,86.06
2018-12-26T06:19:24.193Z,86.03
2018-12-26T06:21:52.532Z,86.08
2018-12-26T06:24:20.824Z,86.15
2018-12-26T06:26:49.120Z,86.15
2018-12-26T06:29:17.528Z,86.26
2018-12-26T06:31:45.822Z,86.43
2018-12-26T06:34:14.126Z,86.38
2018-12-26T06:36:42.443Z,86.41
2018-12-26T06:39:10.748Z,86.41
2018-12-26T06:41:39.039Z,86.52
2018-12-26T06:44:07.350Z,86.55
2018-12-26T06:46:35.674Z,86.53
2018-12-26T06:49:03.984Z,86.43
2018-12-26T06:51:32.297Z,86.40
2018-12-26T06:54:00.602Z,86.25
2018-12-26T06:56:28.895Z,86.42
2018-12-26T06:58:57.198Z,86.50
2018-12-26T07:01:25.495Z,86.45
2018-12-26T07:03:53.828Z,86.46
2018-12-26T07:06:22.121Z,86.58
2018-12-26T07:08:50.491Z,86.63
2018-12-26T07:11:18.746Z,86.52
2018-12-26T07:13:47.061Z,86.54
2018-12-26T07:16:15.373Z,86.74
2018-12-26T07:18:43.667Z,86.76
2018-12-26T07:21:11.971Z,86.76
2018-12-26T07:23:40.264Z,86.94
2018-12-26T07:26:08.571Z,86.82
2018-12-26T07:28:36.893Z,86.77
2018-12-26T07:31:05.199Z,86.80
2018-12-26T07:33:33.519Z,86.77
2018-12-26T07:36:01.848Z,86.74
2018-12-26T07:38:30.136Z,86.62
2018-12-26T07:40:58.440Z,86.45
2018-12-26T07:43:26.731Z,86.64
2018-12-26T07:45:55.035Z,86.57
2018-12-26T07:48:23.342Z,86.55
2018-12-26T07:50:51.658Z,86.46
2018-12-26T07:53:19.964Z,86.56
2018-12-26T07:55:48.288Z,86.63
2018-12-26T07:58:17.681Z,86.54
2018-12-26T08:00:46.618Z,86.62
2018-12-26T08:03:14.907Z,86.52
2018-12-26T08:05:43.210Z,86.63
2018-12-26T08:08:11.502Z,86.72
2018-12-26T08:10:39.813Z,86.64
2018-12-26T08:13:08.101Z,86.78
2018-12-26T08:15:36.420Z,86.81
2018-12-26T08:18:04.700Z,86.73
2018-12-26T08:20:33.050Z,86.54
2018-12-26T08:23:01.371Z,86.59
2018-12-26T08:25:29.674Z,86.33
2018-12-26T08:27:57.991Z,86.45
2018-12-26T08:30:26.320Z,86.40
2018-12-26T08:32:54.633Z,86.61
2018-12-26T08:35:22.927Z,86.58
2018-12-26T08:37:51.252Z,86.50
2018-12-26T08:40:19.544Z,86.55
2018-12-26T08:42:47.871Z,86.64
2018-12-26T08:45:16.167Z,86.67
2018-12-26T08:47:44.465Z,86.66
2018-12-26T08:50:12.750Z,86.66
2018-12-26T08:52:41.073Z,86.75
2018-12-26T08:55:09.386Z,86.63
2018-12-26T08:57:37.690Z,86.69
2018-12-26T09:03:20.244Z,86.86
2018-12-26T09:05:48.536Z,86.92
2018-12-26T09:08:16.840Z,87.11
2018-12-26T09:10:45.151Z,87.18
2018-12-26T09:13:13.450Z,87.30
2018-12-26T09:15:41.735Z,87.31
2018-12-26T09:18:10.037Z,87.43
2018-12-26T09:20:38.349Z,87.44
2018-12-26T09:23:06.655Z,87.47
2018-12-26T09:25:54.395Z,87.39
2018-12-26T09:28:22.703Z,87.44
2018-12-26T09:30:50.994Z,87.40
2018-12-26T09:33:19.315Z,87.35
2018-12-26T09:35:47.597Z,87.25
2018-12-26T09:38:15.905Z,87.24
2018-12-26T09:40:44.199Z,87.38
2018-12-26T09:43:12.523Z,87.36
2018-12-26T09:45:40.829Z,87.15
2018-12-26T09:48:09.160Z,87.11
2018-12-26T09:50:37.480Z,86.96
2018-12-26T09:53:05.803Z,86.82
2018-12-26T09:55:34.088Z,86.84
2018-12-26T09:58:02.402Z,86.71
2018-12-26T10:00:30.687Z,86.67
2018-12-26T10:02:58.984Z,86.69
2018-12-26T10:05:27.276Z,86.50
2018-12-26T10:07:55.633Z,86.48
2018-12-26T10:10:23.928Z,86.34
2018-12-26T10:12:52.231Z,86.40
2018-12-26T10:15:20.525Z,86.31
2018-12-26T10:17:48.857Z,86.26
2018-12-26T10:20:17.147Z,86.12
2018-12-26T10:22:45.468Z,86.10
2018-12-26T10:25:13.777Z,86.07
2018-12-26T10:27:42.111Z,86.04
2018-12-26T10:30:10.396Z,85.89
2018-12-26T10:32:38.708Z,85.79
2018-12-26T10:38:20.768Z,85.95
2018-12-26T10:40:49.059Z,85.94
2018-12-26T10:43:17.358Z,86.08
2018-12-26T10:45:45.644Z,86.17
2018-12-26T10:48:13.961Z,86.17
2018-12-26T10:50:42.246Z,86.23
2018-12-26T10:53:10.580Z,86.32
2018-12-26T10:55:38.891Z,86.41
2018-12-26T10:58:07.189Z,86.31
2018-12-26T11:00:35.497Z,86.24
2018-12-26T11:03:03.807Z,86.12
2018-12-26T11:08:20.986Z,86.01
2018-12-26T11:10:49.265Z,86.08
2018-12-26T11:13:17.575Z,86.22
2018-12-26T11:15:45.892Z,87.76
2018-12-26T11:18:14.186Z,86.98
2018-12-26T11:20:42.490Z,86.48
2018-12-26T11:23:10.792Z,86.16
2018-12-26T11:25:39.128Z,86.31
2018-12-26T11:28:07.423Z,86.24
2018-12-26T11:30:35.747Z,86.30
2018-12-26T11:33:11.090Z,94.30
2018-12-26T11:35:39.432Z,95.37
2018-12-26T11:38:07.739Z,94.60
2018-12-26T11:40:36.068Z,93.49
2018-12-26T11:43:04.373Z,88.00
2018-12-26T11:45:32.714Z,86.97
2018-12-26T11:48:01.008Z,82.11
2018-12-26T11:50:29.329Z,82.06
2018-12-26T11:52:57.628Z,81.22
2018-12-26T11:55:25.943Z,78.75
2018-12-26T11:57:54.266Z,77.59
2018-12-26T12:00:22.567Z,72.46
2018-12-26T12:02:50.860Z,70.79
2018-12-26T12:05:19.161Z,70.57
2018-12-26T12:07:47.472Z,72.39
2018-12-26T12:10:15.772Z,72.30
2018-12-26T12:12:44.191Z,73.75
2018-12-26T12:15:12.479Z,74.68
2018-12-26T12:17:40.783Z,75.20
2018-12-26T12:20:49.198Z,76.11
2018-12-26T12:23:17.505Z,76.76
2018-12-26T12:25:45.808Z,77.74
2018-12-26T12:28:14.094Z,78.65
2018-12-26T12:30:42.388Z,79.57
2018-12-26T12:33:10.718Z,80.43
2018-12-26T12:35:39.012Z,80.63
2018-12-26T12:38:07.313Z,81.25
2018-12-26T12:40:35.600Z,81.62
2018-12-26T12:43:03.903Z,81.89
2018-12-26T12:45:32.194Z,81.97
2018-12-26T12:48:00.492Z,82.17
2018-12-26T12:50:28.783Z,82.29
2018-12-26T12:52:57.095Z,82.60
2018-12-26T12:55:25.407Z,82.72
2018-12-26T12:57:53.711Z,82.89
2018-12-26T13:00:22.028Z,82.81
2018-12-26T13:02:50.332Z,82.77
2018-12-26T13:05:18.653Z,82.74
2018-12-26T13:07:46.948Z,82.89
2018-12-26T13:10:15.240Z,82.96
2018-12-26T13:12:43.563Z,83.06
2018-12-26T13:15:11.850Z,83.25
2018-12-26T13:17:40.229Z,83.45
2018-12-26T13:23:22.612Z,83.59
2018-12-26T13:25:50.922Z,83.57
2018-12-26T13:28:19.228Z,83.51
2018-12-26T13:31:06.952Z,83.54
2018-12-26T13:33:35.256Z,83.52
2018-12-26T13:36:03.551Z,83.68
2018-12-26T13:38:31.880Z,83.76
2018-12-26T13:41:00.206Z,83.80
2018-12-26T13:43:28.515Z,83.94
2018-12-26T13:45:56.810Z,84.14
2018-12-26T13:48:25.122Z,84.22
2018-12-26T13:50:53.452Z,84.22
2018-12-26T13:53:21.787Z,84.33
2018-12-26T13:55:50.085Z,84.24
2018-12-26T13:58:30.441Z,84.49
2018-12-26T14:00:58.749Z,84.70
2018-12-26T14:03:27.044Z,84.92
2018-12-26T14:05:55.358Z,85.00
2018-12-26T14:08:23.660Z,84.94
2018-12-26T14:10:51.999Z,84.98
2018-12-26T14:13:20.295Z,85.04
2018-12-26T14:15:48.634Z,85.06
2018-12-26T14:18:16.949Z,85.05
2018-12-26T14:20:45.282Z,85.07
2018-12-26T14:23:13.580Z,85.28
2018-12-26T14:25:41.916Z,85.27
2018-12-26T14:28:10.221Z,85.27
2018-12-26T14:30:38.554Z,85.30
2018-12-26T14:33:06.862Z,85.25
2018-12-26T14:35:35.195Z,85.38
2018-12-26T14:38:03.494Z,85.45
2018-12-26T14:40:31.833Z,85.49
2018-12-26T14:43:00.140Z,85.33
2018-12-26T14:45:28.442Z,85.27
2018-12-26T14:47:56.736Z,85.40
2018-12-26T14:50:25.060Z,85.45
2018-12-26T14:52:53.377Z,85.35
2018-12-26T14:55:21.712Z,85.13
2018-12-26T14:57:50.007Z,85.03
2018-12-26T15:00:20.063Z,85.15
2018-12-26T15:02:48.366Z,85.23
2018-12-26T15:05:16.686Z,85.31
2018-12-26T15:07:44.991Z,85.39
2018-12-26T15:10:13.292Z,85.42
2018-12-26T15:12:41.606Z,85.28
2018-12-26T15:15:10.104Z,85.23
2018-12-26T15:17:38.410Z,85.15
2018-12-26T15:23:21.097Z,84.79
2018-12-26T15:25:49.391Z,85.05
2018-12-26T15:28:17.700Z,85.03
2018-12-26T15:30:46.001Z,85.14
2018-12-26T15:33:14.332Z,85.09
2018-12-26T15:35:42.632Z,85.03
2018-12-26T15:38:10.939Z,84.93
2018-12-26T15:40:39.261Z,84.83
2018-12-26T15:43:07.580Z,84.94
2018-12-26T15:45:35.879Z,84.90
2018-12-26T15:48:04.193Z,84.82
2018-12-26T15:50:32.494Z,84.93
2018-12-26T15:53:00.803Z,85.03
2018-12-26T15:55:29.126Z,84.94
2018-12-26T15:57:57.458Z,84.93
2018-12-26T16:00:25.758Z,84.89
2018-12-26T16:02:54.097Z,84.90
2018-12-26T16:05:22.394Z,84.80
2018-12-26T16:07:50.711Z,84.90
2018-12-26T16:10:19.008Z,84.99
2018-12-26T16:12:47.342Z,85.05
2018-12-26T16:15:15.637Z,84.87
2018-12-26T16:17:43.955Z,84.86
2018-12-26T16:20:12.252Z,84.99
2018-12-26T16:22:40.559Z,84.95
2018-12-26T16:28:09.865Z,84.97
2018-12-26T16:30:45.956Z,84.91
2018-12-26T16:33:08.223Z,84.86
2018-12-26T16:35:36.547Z,84.95
2018-12-26T16:38:04.878Z,84.96
2018-12-26T16:40:33.182Z,84.94
2018-12-26T16:43:01.534Z,85.14
2018-12-26T16:45:29.858Z,85.06
2018-12-26T16:47:58.160Z,85.11
2018-12-26T16:50:27.086Z,85.04
2018-12-26T16:52:56.491Z,85.14
2018-12-26T16:55:24.804Z,85.25
2018-12-26T16:57:53.100Z,85.23
2018-12-26T17:00:21.415Z,85.16
2018-12-26T17:02:49.710Z,85.31
2018-12-26T17:05:18.019Z,85.43
2018-12-26T17:07:46.326Z,85.47
2018-12-26T17:10:54.774Z,85.40
2018-12-26T17:13:23.073Z,85.20
2018-12-26T17:15:51.391Z,85.38
2018-12-26T17:18:19.687Z,85.68
2018-12-26T17:20:48.021Z,85.64
2018-12-26T17:23:16.322Z,85.62
2018-12-26T17:25:44.653Z,85.68
2018-12-26T17:28:12.960Z,85.45
2018-12-26T17:30:41.267Z,85.78
2018-12-26T17:33:09.583Z,85.91
2018-12-26T17:35:37.895Z,85.78
2018-12-26T17:38:06.189Z,85.81
2018-12-26T17:40:34.499Z,85.95
2018-12-26T17:43:02.805Z,85.80
2018-12-26T17:45:32.324Z,85.65
2018-12-26T17:48:01.157Z,85.65
2018-12-26T17:50:49.363Z,85.52
2018-12-26T18:00:11.687Z,85.28
2018-12-26T18:02:39.987Z,85.23
2018-12-26T18:05:08.311Z,85.27
2018-12-26T18:07:36.648Z,85.35
2018-12-26T18:13:05.616Z,85.35
2018-12-26T18:15:33.917Z,85.25
2018-12-26T18:18:02.239Z,85.25
2018-12-26T18:20:30.614Z,85.24
2018-12-26T18:22:58.929Z,85.27
2018-12-26T18:25:27.245Z,85.23
2018-12-26T18:27:55.553Z,85.24
2018-12-26T18:30:23.844Z,85.20
2018-12-26T18:32:52.175Z,85.07
2018-12-26T18:35:20.468Z,85.07
2018-12-26T18:37:48.805Z,85.08
2018-12-26T18:40:17.106Z,85.28
2018-12-26T18:42:45.419Z,85.15
2018-12-26T18:45:13.737Z,85.36
2018-12-26T18:47:42.047Z,85.26
2018-12-26T18:50:10.481Z,85.17
2018-12-26T18:52:38.793Z,85.19
2018-12-26T18:55:07.165Z,84.86
2018-12-26T18:57:35.473Z,84.99
2018-12-26T19:03:17.230Z,84.71
2018-12-26T19:05:45.531Z,84.74
2018-12-26T19:08:13.844Z,84.88
2018-12-26T19:10:42.146Z,85.03
2018-12-26T19:13:10.465Z,84.99
2018-12-26T19:15:38.788Z,84.69
2018-12-26T19:18:07.093Z,84.90
2018-12-26T19:20:35.412Z,84.94
2018-12-26T19:23:03.727Z,84.87
2018-12-26T19:25:32.031Z,84.84
2018-12-26T19:28:00.361Z,84.96
2018-12-26T19:30:28.664Z,84.94
2018-12-26T19:32:56.971Z,84.75
2018-12-26T19:35:25.268Z,84.63
2018-12-26T19:37:53.565Z,84.67
2018-12-26T19:40:21.885Z,84.73
2018-12-26T19:42:50.184Z,84.59
2018-12-26T19:45:18.568Z,84.59
2018-12-26T19:47:46.812Z,84.42
2018-12-26T19:50:15.125Z,84.38
2018-12-26T19:52:43.444Z,84.29
2018-12-26T19:55:11.755Z,84.09
2018-12-26T19:57:40.051Z,84.38
2018-12-26T20:00:48.471Z,84.30
2018-12-26T20:03:16.766Z,84.19
2018-12-26T20:05:45.063Z,84.27
2018-12-26T20:08:13.353Z,84.20
2018-12-26T20:10:41.664Z,84.17
2018-12-26T20:13:09.959Z,84.19
2018-12-26T20:15:38.268Z,84.22
2018-12-26T20:18:06.575Z,84.01
2018-12-26T20:20:34.875Z,84.04
2018-12-26T20:23:03.177Z,84.02
2018-12-26T20:25:31.485Z,83.84
2018-12-26T20:27:59.789Z,83.90
2018-12-26T20:30:28.100Z,84.16
2018-12-26T20:32:56.390Z,84.16
2018-12-26T20:35:24.703Z,84.10
2018-12-26T20:37:52.990Z,84.18
2018-12-26T20:40:21.297Z,83.99
2018-12-26T20:42:49.599Z,83.94
2018-12-26T20:45:17.902Z,83.96
2018-12-26T20:47:46.194Z,84.07
2018-12-26T20:50:14.495Z,83.94
2018-12-26T20:52:42.777Z,83.86
2018-12-26T20:55:11.084Z,83.83
2018-12-26T20:57:39.386Z,83.94
2018-12-26T21:00:47.829Z,84.08
2018-12-26T21:03:16.146Z,84.19
2018-12-26T21:05:44.454Z,84.30
2018-12-26T21:08:12.765Z,84.30
2018-12-26T21:10:41.080Z,84.09
2018-12-26T21:13:09.370Z,84.19
2018-12-26T21:15:37.679Z,84.39
2018-12-26T21:18:05.997Z,84.27
2018-12-26T21:20:34.301Z,84.20
2018-12-26T21:23:02.595Z,83.99
2018-12-26T21:25:30.908Z,83.97
2018-12-26T21:27:59.197Z,83.90
2018-12-26T21:30:27.507Z,83.90
2018-12-26T21:32:55.900Z,83.93
2018-12-26T21:35:24.208Z,83.93
2018-12-26T21:37:52.495Z,84.00
2018-12-26T21:40:20.889Z,84.04
2018-12-26T21:42:49.176Z,83.85
2018-12-26T21:45:17.485Z,83.89
2018-12-26T21:47:45.774Z,83.95
2018-12-26T21:50:14.079Z,84.13
2018-12-26T21:52:42.397Z,84.14
2018-12-26T21:55:10.714Z,84.27
2018-12-26T21:57:39.005Z,84.31
2018-12-26T22:00:47.453Z,84.07
2018-12-26T22:03:15.752Z,84.12
2018-12-26T22:05:44.056Z,84.24
2018-12-26T22:08:12.374Z,84.14
2018-12-26T22:10:40.718Z,84.24
2018-12-26T22:13:09.017Z,84.14
2018-12-26T22:15:37.307Z,83.93
2018-12-26T22:18:05.616Z,83.92
2018-12-26T22:20:33.916Z,83.91
2018-12-26T22:23:02.226Z,83.94
2018-12-26T22:25:30.524Z,84.03
2018-12-26T22:27:58.836Z,83.88
2018-12-26T22:30:27.152Z,83.97
2018-12-26T22:32:55.469Z,84.10
2018-12-26T22:35:23.758Z,83.83
2018-12-26T22:37:52.091Z,83.80
2018-12-26T22:40:20.379Z,83.86
2018-12-26T22:42:48.691Z,83.93
2018-12-26T22:45:16.983Z,83.96
2018-12-26T22:47:45.298Z,83.96
2018-12-26T22:50:13.601Z,84.01
2018-12-26T22:52:41.905Z,83.78
2018-12-26T22:55:10.203Z,83.86
2018-12-26T22:57:38.522Z,83.86
2018-12-26T23:03:07.940Z,84.13
2018-12-26T23:05:36.255Z,83.97
2018-12-26T23:08:04.559Z,83.85
2018-12-26T23:10:32.861Z,84.01
2018-12-26T23:13:01.185Z,84.01
2018-12-26T23:15:29.479Z,83.94
2018-12-26T23:17:57.785Z,83.78
2018-12-26T23:20:26.083Z,83.71
2018-12-26T23:22:54.397Z,83.72
2018-12-26T23:25:22.693Z,83.85
2018-12-26T23:27:51.020Z,83.95
2018-12-26T23:30:19.312Z,83.87
2018-12-26T23:32:47.601Z,83.89
2018-12-26T23:35:15.908Z,83.71
2018-12-26T23:37:44.198Z,83.68
2018-12-26T23:40:12.530Z,83.47
2018-12-26T23:42:40.823Z,83.43
2018-12-26T23:45:09.142Z,83.19
2018-12-26T23:47:37.435Z,83.16
2018-12-26T23:50:05.745Z,83.05
2018-12-26T23:52:34.212Z,83.17
2018-12-26T23:55:02.519Z,83.07
2018-12-26T23:57:30.818Z,83.15
2018-12-26T23:59:59.137Z,83.07
